Weather History for Farmington, MO

Change the Weather History Date:

Monday, April 30, 2012

  Actual Average Record
Temperature  
Mean Temperature 65 °F -  
Max Temperature 73 °F 68 °F 87 °F (2007)
Min Temperature 57 °F 48 °F 42 °F (2005)
Growing Degree Days 15 (Base 50)    
Moisture  
Dew Point 60 °F    
Average Humidity 78    
Maximum Humidity 94    
Minimum Humidity 61    
Precipitation  
Precipitation 0.02 in - - ()
Sea Level Pressure  
Sea Level Pressure 29.99 in    
Wind  
Wind Speed 5 mph (SW)    
Max Wind Speed 16 mph    
Max Gust Speed 23 mph    
Visibility 10 miles    
Events      
Averages and records for this station are not official NWS values.
T = Trace of Precipitation, MM = Missing Value Source: NWS Daily Summary

Daily Weather History Graph

Daily Weather History Graph

Search for Another Location

Airport:

Trip Planner

Search our weather history database for the weather conditions in past years. The results will help you decide how hot, cold, wet, or windy it might be!

Date:

Astronomy

Apr. 30, 2012 Rise Set
Actual Time 6:06 AM CDT 7:51 PM CDT
Civil Twilight 5:38 AM CDT 8:19 PM CDT
Nautical Twilight 5:04 AM CDT 8:54 PM CDT
Astronomical Twilight 4:28 AM CDT 9:30 PM CDT
Moon 1:55 PM CDT (4/30) 2:24 AM CDT (4/30)
Length of Visible Light 14h 41m
Length of Day
13h 45m
Waxing Gibbous, 64% of the Moon is Illuminated
Apr 30
Waxing Gibbous
May 5
Full
May 12
Last Quarter
May 20
New
May 28
First Quarter

Hourly Weather History & Observations

Time (CDT) Temp. Dew Point Humidity Pressure Visibility Wind Dir Wind Speed Gust Speed Precip Events Conditions
12:15 AM 62.6 °F 57.2 °F 82% 30.00 in 10.0 mi Calm Calm - N/A   Clear
12:35 AM 64.4 °F 57.2 °F 77% 30.00 in 10.0 mi Calm Calm - N/A   Clear
12:55 AM 64.4 °F 57.2 °F 77% 30.00 in 10.0 mi Calm Calm - N/A   Clear
1:15 AM 64.4 °F 57.2 °F 77% 29.99 in 10.0 mi Calm Calm - N/A   Clear
1:35 AM 62.6 °F 57.2 °F 82% 30.00 in 10.0 mi SSW 3.5 mph - N/A   Clear
1:55 AM 64.4 °F 57.2 °F 77% 30.01 in 10.0 mi Calm Calm - N/A   Clear
2:15 AM 62.6 °F 57.2 °F 82% 30.00 in 10.0 mi ESE 6.9 mph - N/A   Mostly Cloudy
2:35 AM 60.8 °F 57.2 °F 88% 30.00 in 10.0 mi SSE 4.6 mph - N/A   Mostly Cloudy
2:55 AM 62.6 °F 57.2 °F 82% 30.00 in 10.0 mi South 4.6 mph - N/A   Scattered Clouds
3:15 AM 62.6 °F 57.2 °F 82% 30.00 in 10.0 mi South 4.6 mph - N/A   Partly Cloudy
3:35 AM 62.6 °F 57.2 °F 82% 30.00 in 10.0 mi South 6.9 mph - N/A   Partly Cloudy
3:55 AM 62.6 °F 57.2 °F 82% 30.00 in 10.0 mi South 6.9 mph - N/A   Clear
4:15 AM 62.6 °F 57.2 °F 82% 30.00 in 10.0 mi South 8.1 mph - N/A   Clear
4:35 AM 62.6 °F 57.2 °F 82% 30.00 in 10.0 mi South 6.9 mph - N/A   Clear
4:55 AM 62.6 °F 57.2 °F 82% 29.99 in 10.0 mi South 5.8 mph - N/A   Clear
5:35 AM 60.8 °F 57.2 °F 88% 29.99 in 10.0 mi SSW 5.8 mph - N/A   Clear
5:55 AM 62.6 °F 57.2 °F 82% 30.00 in 10.0 mi SSW 5.8 mph - N/A   Clear
6:15 AM 62.6 °F 57.2 °F 82% 30.00 in 10.0 mi South 5.8 mph - N/A   Clear
6:35 AM 62.6 °F 57.2 °F 82% 30.00 in 10.0 mi South 4.6 mph - N/A   Clear
6:55 AM 62.6 °F 57.2 °F 82% 30.00 in 10.0 mi SSE 6.9 mph - N/A   Clear
7:15 AM 62.6 °F 57.2 °F 82% 30.00 in 10.0 mi South 5.8 mph - N/A   Clear
7:35 AM 62.6 °F 59.0 °F 88% 30.01 in 10.0 mi South 5.8 mph - N/A   Clear
7:55 AM 64.4 °F 59.0 °F 83% 30.01 in 10.0 mi South 9.2 mph - N/A   Mostly Cloudy
8:15 AM 66.2 °F 60.8 °F 83% 30.02 in 10.0 mi South 8.1 mph - N/A   Mostly Cloudy
8:35 AM 66.2 °F 60.8 °F 83% 30.01 in 10.0 mi South 8.1 mph - N/A   Partly Cloudy
8:55 AM 66.2 °F 60.8 °F 83% 30.02 in 10.0 mi South 6.9 mph - N/A   Clear
9:15 AM 68.0 °F 60.8 °F 78% 30.01 in 10.0 mi SSW 8.1 mph - N/A   Partly Cloudy
9:35 AM 69.8 °F 62.6 °F 78% 30.01 in 10.0 mi SSW 9.2 mph - N/A   Partly Cloudy
9:55 AM 71.6 °F 62.6 °F 73% 30.01 in 10.0 mi SW 6.9 mph - N/A   Scattered Clouds
10:15 AM 71.6 °F 62.6 °F 73% 30.00 in 10.0 mi South 9.2 mph - N/A   Mostly Cloudy
10:35 AM 73.4 °F 62.6 °F 69% 30.01 in 10.0 mi SSW 9.2 mph - N/A   Mostly Cloudy
10:55 AM 73.4 °F 62.6 °F 69% 30.00 in 10.0 mi SSW 8.1 mph - N/A   Mostly Cloudy
11:15 AM 73.4 °F 62.6 °F 69% 29.99 in 10.0 mi SW 10.4 mph 17.3 mph N/A   Mostly Cloudy
11:35 AM 71.6 °F 62.6 °F 73% 29.99 in 10.0 mi SW 9.2 mph - N/A   Overcast
11:55 AM 68.0 °F 64.4 °F 88% 29.99 in 5.0 mi West 6.9 mph - 0.01 in   Overcast
12:15 PM 68.0 °F 64.4 °F 88% 29.95 in 8.0 mi SSE 11.5 mph - 0.01 in   Mostly Cloudy
12:35 PM 69.8 °F 64.4 °F 83% 29.98 in 9.0 mi NW 5.8 mph - 0.01 in   Overcast
12:55 PM 69.8 °F 64.4 °F 83% 29.97 in 10.0 mi SSW 4.6 mph - 0.01 in   Mostly Cloudy
1:15 PM 69.8 °F 64.4 °F 83% 29.97 in 10.0 mi SW 4.6 mph - N/A   Partly Cloudy
1:35 PM 69.8 °F 66.2 °F 88% 29.98 in 10.0 mi WSW 10.4 mph - N/A   Mostly Cloudy
1:55 PM 71.6 °F 64.4 °F 78% 29.98 in 10.0 mi West 9.2 mph 16.1 mph N/A   Mostly Cloudy
2:15 PM 71.6 °F 62.6 °F 73% 29.98 in 10.0 mi WSW 11.5 mph - N/A   Partly Cloudy
2:35 PM 71.6 °F 62.6 °F 73% 29.98 in 10.0 mi West 9.2 mph - N/A   Scattered Clouds
2:55 PM 73.4 °F 62.6 °F 69% 29.97 in 10.0 mi West 10.4 mph 19.6 mph N/A   Mostly Cloudy
3:15 PM 73.4 °F 60.8 °F 65% 29.97 in 10.0 mi WSW 15.0 mph 23.0 mph N/A   Scattered Clouds
3:35 PM 73.4 °F 60.8 °F 65% 29.97 in 10.0 mi WSW 16.1 mph 20.7 mph N/A   Scattered Clouds
3:55 PM 73.4 °F 59.0 °F 61% 29.97 in 10.0 mi West 9.2 mph 19.6 mph N/A   Partly Cloudy
4:15 PM 73.4 °F 60.8 °F 65% 29.97 in 10.0 mi West 8.1 mph - N/A   Clear
4:35 PM 71.6 °F 60.8 °F 69% 29.98 in 10.0 mi WNW 6.9 mph - N/A   Mostly Cloudy
4:55 PM 71.6 °F 60.8 °F 69% 29.98 in 10.0 mi WNW 5.8 mph - N/A   Overcast
5:15 PM 73.4 °F 60.8 °F 65% 29.98 in 10.0 mi West 6.9 mph - N/A   Mostly Cloudy
5:35 PM 71.6 °F 60.8 °F 69% 29.98 in 10.0 mi NW 8.1 mph - N/A   Mostly Cloudy
5:55 PM 71.6 °F 60.8 °F 69% 29.98 in 10.0 mi WNW 6.9 mph - N/A   Overcast
6:15 PM 71.6 °F 60.8 °F 69% 29.98 in 10.0 mi West 5.8 mph - N/A   Mostly Cloudy
6:35 PM 71.6 °F 60.8 °F 69% 29.98 in 10.0 mi West 8.1 mph - N/A   Partly Cloudy
6:55 PM 71.6 °F 59.0 °F 64% 29.98 in 10.0 mi WNW 4.6 mph - N/A   Clear
7:15 PM 71.6 °F 59.0 °F 64% 29.99 in 10.0 mi WNW 4.6 mph - N/A   Clear
7:35 PM 69.8 °F 59.0 °F 68% 30.00 in 10.0 mi Calm Calm - N/A   Clear
7:55 PM 69.8 °F 59.0 °F 68% 30.00 in 10.0 mi Calm Calm - N/A   Clear
8:15 PM 66.2 °F 57.2 °F 73% 30.00 in 10.0 mi Calm Calm - N/A   Clear
8:35 PM 64.4 °F 59.0 °F 83% 30.00 in 10.0 mi Calm Calm - N/A   Clear
8:55 PM 64.4 °F 59.0 °F 83% 30.01 in 10.0 mi Calm Calm - N/A   Clear
9:15 PM 62.6 °F 57.2 °F 82% 30.01 in 10.0 mi Calm Calm - N/A   Clear
9:35 PM 60.8 °F 57.2 °F 88% 30.01 in 10.0 mi Calm Calm - N/A   Clear
9:55 PM 60.8 °F 57.2 °F 88% 30.01 in 10.0 mi Calm Calm - N/A   Clear
10:15 PM 60.8 °F 57.2 °F 88% 30.00 in 10.0 mi Calm Calm - N/A   Clear
10:35 PM 60.8 °F 57.2 °F 88% 29.99 in 10.0 mi Calm Calm - N/A   Clear
11:15 PM 57.2 °F 55.4 °F 94% 29.99 in 10.0 mi Calm Calm - N/A   Clear
11:35 PM 57.2 °F 55.4 °F 94% 30.00 in 7.0 mi Calm Calm - N/A   Clear
11:55 PM 57.2 °F 55.4 °F 94% 29.99 in 10.0 mi Calm Calm - N/A   Mostly Cloudy